createdAt,value
2022-12-17T00:02:14.229Z,46.47
2022-12-17T00:04:59.919Z,51.00
2022-12-17T00:07:46.822Z,52.05
2022-12-17T00:10:32.430Z,46.17
2022-12-17T00:13:17.999Z,48.17
2022-12-17T00:16:09.606Z,51.03
2022-12-17T00:18:54.906Z,51.45
2022-12-17T00:21:41.845Z,46.22
2022-12-17T00:24:28.604Z,52.50
2022-12-17T00:27:22.570Z,52.58
2022-12-17T00:30:08.103Z,53.70
2022-12-17T00:32:49.957Z,47.95
2022-12-17T00:35:35.596Z,53.22
2022-12-17T00:38:21.137Z,50.30
2022-12-17T00:41:10.941Z,51.53
2022-12-17T00:43:57.035Z,46.42
2022-12-17T00:46:42.627Z,48.97
2022-12-17T00:49:27.861Z,50.65
2022-12-17T00:52:13.531Z,49.22
2022-12-17T00:54:58.248Z,51.17
2022-12-17T00:57:45.194Z,51.83
2022-12-17T01:00:31.327Z,54.97
2022-12-17T01:03:26.753Z,54.30
2022-12-17T01:06:12.795Z,51.65
2022-12-17T01:08:58.380Z,55.40
2022-12-17T01:11:44.062Z,52.72
2022-12-17T01:14:31.009Z,52.38
2022-12-17T01:17:16.558Z,57.83
2022-12-17T01:20:02.207Z,54.17
2022-12-17T01:22:47.742Z,46.17
2022-12-17T01:25:33.447Z,47.40
2022-12-17T01:28:18.963Z,49.05
2022-12-17T01:31:05.559Z,53.00
2022-12-17T01:33:51.182Z,46.17
2022-12-17T01:36:36.801Z,61.58
2022-12-17T01:39:22.206Z,48.17
2022-12-17T01:42:07.882Z,49.83
2022-12-17T01:45:13.025Z,49.13
2022-12-17T01:48:03.344Z,55.35
2022-12-17T01:50:48.180Z,53.33
2022-12-17T01:53:36.205Z,53.67
2022-12-17T01:59:08.520Z,50.75
2022-12-17T02:01:54.332Z,51.15
2022-12-17T02:04:41.270Z,51.63
2022-12-17T02:07:47.549Z,49.53
2022-12-17T02:10:41.769Z,47.85
2022-12-17T02:13:34.267Z,49.63
2022-12-17T02:16:29.026Z,50.22
2022-12-17T02:19:19.486Z,48.92
2022-12-17T02:22:10.307Z,57.22
2022-12-17T02:25:02.977Z,52.03
2022-12-17T02:27:50.476Z,50.10
2022-12-17T02:30:36.256Z,48.78
2022-12-17T02:33:22.328Z,44.45
2022-12-17T02:36:11.828Z,51.45
2022-12-17T02:38:57.415Z,45.72
2022-12-17T02:41:46.949Z,41.70
2022-12-17T02:44:36.767Z,51.50
2022-12-17T02:47:25.833Z,52.67
2022-12-17T02:50:11.475Z,45.97
2022-12-17T02:53:00.111Z,55.83
2022-12-17T02:55:46.064Z,49.15
2022-12-17T02:58:31.797Z,45.85
2022-12-17T03:01:18.699Z,47.63
2022-12-17T03:04:04.545Z,43.35
2022-12-17T03:06:50.159Z,44.65
2022-12-17T03:09:35.782Z,43.70
2022-12-17T03:12:21.433Z,40.20
2022-12-17T03:15:07.145Z,45.05
2022-12-17T03:17:53.816Z,50.83
2022-12-17T03:20:39.411Z,44.90
2022-12-17T03:23:27.066Z,47.08
2022-12-17T03:26:12.713Z,44.35
2022-12-17T03:28:58.379Z,45.83
2022-12-17T03:31:43.967Z,48.97
2022-12-17T03:34:30.907Z,44.20
2022-12-17T03:37:16.550Z,49.22
2022-12-17T03:40:04.374Z,44.88
2022-12-17T03:42:50.012Z,47.03
2022-12-17T03:45:47.038Z,49.80
2022-12-17T03:48:33.717Z,49.85
2022-12-17T03:51:21.219Z,42.92
2022-12-17T03:54:07.407Z,49.50
2022-12-17T03:56:53.252Z,46.47
2022-12-17T03:59:38.863Z,47.75
2022-12-17T04:02:24.558Z,43.72
2022-12-17T04:05:12.768Z,52.35
2022-12-17T04:08:02.179Z,44.00
2022-12-17T04:10:47.772Z,43.83
2022-12-17T04:13:38.832Z,48.78
2022-12-17T04:16:26.121Z,52.47
2022-12-17T04:19:11.550Z,45.05
2022-12-17T04:21:57.116Z,39.58
2022-12-17T04:24:44.116Z,44.97
2022-12-17T04:27:29.856Z,38.05
2022-12-17T04:30:15.381Z,43.22
2022-12-17T04:33:00.915Z,41.58
2022-12-17T04:35:46.488Z,41.58
2022-12-17T04:38:46.612Z,40.70
2022-12-17T04:41:33.796Z,50.70
2022-12-17T04:44:19.021Z,39.03
2022-12-17T04:47:04.662Z,42.78
2022-12-17T04:49:50.038Z,41.65
2022-12-17T04:52:35.622Z,43.80
2022-12-17T04:55:21.165Z,47.80
2022-12-17T04:58:08.135Z,42.30
2022-12-17T05:00:55.981Z,40.50
2022-12-17T05:03:41.966Z,41.72
2022-12-17T05:06:27.796Z,38.47
2022-12-17T05:09:13.406Z,38.67
2022-12-17T05:11:58.953Z,44.92
2022-12-17T05:14:45.802Z,47.15
2022-12-17T05:17:31.466Z,47.83
2022-12-17T05:20:16.957Z,46.33
2022-12-17T05:23:02.509Z,45.22
2022-12-17T05:25:48.088Z,50.08
2022-12-17T05:28:33.709Z,46.95
2022-12-17T05:31:20.469Z,47.22
2022-12-17T05:34:05.828Z,43.80
2022-12-17T05:36:51.397Z,41.30
2022-12-17T05:39:37.033Z,47.45
2022-12-17T05:42:22.633Z,38.58
2022-12-17T05:45:08.100Z,36.50
2022-12-17T05:47:54.979Z,38.08
2022-12-17T05:50:40.623Z,41.45
2022-12-17T05:53:26.203Z,44.05
2022-12-17T05:56:12.614Z,40.25
2022-12-17T05:58:58.328Z,41.17
2022-12-17T06:01:43.908Z,38.90
2022-12-17T06:04:30.761Z,43.88
2022-12-17T06:07:16.598Z,43.40
2022-12-17T06:10:01.936Z,46.47
2022-12-17T06:12:47.416Z,47.08
2022-12-17T06:15:33.120Z,43.53
2022-12-17T06:18:18.581Z,44.67
2022-12-17T06:21:05.942Z,48.03
2022-12-17T06:23:51.679Z,52.05
2022-12-17T06:26:37.726Z,43.30
2022-12-17T06:29:23.404Z,40.40
2022-12-17T06:32:08.849Z,44.65
2022-12-17T06:34:54.632Z,41.05
2022-12-17T06:37:41.358Z,38.35
2022-12-17T06:40:28.151Z,44.10
2022-12-17T06:43:14.816Z,40.35
2022-12-17T06:46:00.417Z,40.90
2022-12-17T06:48:45.743Z,45.60
2022-12-17T06:51:31.712Z,61.85
2022-12-17T06:54:18.611Z,91.43
2022-12-17T06:57:04.223Z,95.90
2022-12-17T06:59:49.944Z,98.30
2022-12-17T07:02:35.255Z,218.52
2022-12-17T07:05:20.754Z,60.10
2022-12-17T07:08:06.338Z,196.07
2022-12-17T07:10:53.227Z,59.85
2022-12-17T07:13:40.108Z,50.72
2022-12-17T07:16:26.009Z,40.95
2022-12-17T07:19:11.805Z,80.35
2022-12-17T07:21:57.570Z,249.80
2022-12-17T07:24:45.283Z,239.38
2022-12-17T07:27:32.200Z,341.50
2022-12-17T07:30:17.811Z,150.45
2022-12-17T07:33:03.478Z,131.65
2022-12-17T07:35:49.083Z,129.02
2022-12-17T07:38:34.603Z,156.60
2022-12-17T07:41:20.205Z,178.23
2022-12-17T07:44:09.554Z,107.60
2022-12-17T07:46:56.218Z,114.43
2022-12-17T07:49:41.661Z,106.13
2022-12-17T07:52:35.603Z,137.98
2022-12-17T07:55:21.186Z,107.25
2022-12-17T07:58:06.686Z,137.02
2022-12-17T08:00:53.542Z,159.65
2022-12-17T08:03:39.763Z,78.28
2022-12-17T08:06:25.752Z,254.95
2022-12-17T08:09:11.522Z,196.32
2022-12-17T08:11:57.305Z,219.73
2022-12-17T08:14:42.825Z,142.25
2022-12-17T08:17:29.855Z,294.95
2022-12-17T08:20:15.527Z,270.80
2022-12-17T08:23:01.110Z,82.38
2022-12-17T08:25:46.793Z,128.85
2022-12-17T08:31:38.628Z,108.38
2022-12-17T08:34:25.889Z,162.73
2022-12-17T08:37:11.386Z,187.63
2022-12-17T08:39:57.085Z,170.50
2022-12-17T08:42:42.409Z,63.92
2022-12-17T08:45:28.374Z,106.57
2022-12-17T08:48:21.521Z,54.55
2022-12-17T08:51:08.419Z,114.95
2022-12-17T08:53:53.895Z,87.05
2022-12-17T08:56:39.386Z,64.63
2022-12-17T08:59:25.008Z,86.57
2022-12-17T09:02:10.760Z,73.85
2022-12-17T09:04:56.312Z,104.93
2022-12-17T09:07:43.181Z,52.85
2022-12-17T09:10:28.387Z,82.97
2022-12-17T09:13:13.941Z,64.85
2022-12-17T09:15:59.708Z,67.50
2022-12-17T09:18:45.289Z,60.70
2022-12-17T09:21:33.194Z,90.47
2022-12-17T09:24:20.171Z,68.85
2022-12-17T09:27:05.602Z,57.63
2022-12-17T09:29:51.176Z,65.38
2022-12-17T09:32:36.744Z,72.00
2022-12-17T09:35:22.543Z,53.17
2022-12-17T09:38:10.579Z,54.08
2022-12-17T09:40:58.454Z,56.38
2022-12-17T09:43:53.981Z,53.53
2022-12-17T09:46:46.196Z,54.63
2022-12-17T09:49:36.702Z,55.25
2022-12-17T09:52:33.212Z,50.00
2022-12-17T09:55:19.635Z,55.00
2022-12-17T09:58:07.844Z,51.58
2022-12-17T10:00:57.699Z,51.08
2022-12-17T10:03:48.292Z,49.75
2022-12-17T10:06:37.767Z,35.88
2022-12-17T10:09:30.957Z,45.08
2022-12-17T10:12:21.781Z,58.08
2022-12-17T10:15:08.714Z,54.78
2022-12-17T10:17:54.369Z,55.80
2022-12-17T10:20:45.381Z,56.05
2022-12-17T10:23:41.959Z,48.42
2022-12-17T10:26:27.500Z,48.42
2022-12-17T10:29:23.488Z,44.35
2022-12-17T10:32:10.894Z,38.58
2022-12-17T10:35:01.858Z,46.05
2022-12-17T10:37:53.141Z,33.78
2022-12-17T10:40:44.607Z,37.78
2022-12-17T10:43:47.485Z,35.15
2022-12-17T10:46:42.802Z,37.13
2022-12-17T10:49:33.480Z,35.10
2022-12-17T10:52:25.883Z,37.83
2022-12-17T10:55:17.078Z,43.08
2022-12-17T10:58:03.147Z,37.28
2022-12-17T11:00:50.764Z,44.15
2022-12-17T11:03:49.537Z,37.92
2022-12-17T11:06:42.724Z,33.55
2022-12-17T11:09:37.021Z,32.92
2022-12-17T11:12:30.471Z,29.48
2022-12-17T11:15:21.452Z,34.10
2022-12-17T11:18:11.385Z,30.27
2022-12-17T11:21:04.828Z,34.30
2022-12-17T11:23:54.944Z,34.58
2022-12-17T11:26:42.567Z,33.65
2022-12-17T11:29:31.874Z,39.08
2022-12-17T11:32:37.186Z,42.33
2022-12-17T11:35:30.154Z,41.03
2022-12-17T11:38:24.652Z,46.83
2022-12-17T11:41:15.481Z,44.85
2022-12-17T11:44:07.419Z,41.80
2022-12-17T11:47:02.597Z,43.63
2022-12-17T11:49:56.895Z,42.13
2022-12-17T11:52:48.745Z,39.22
2022-12-17T11:55:41.759Z,38.72
2022-12-17T11:58:32.491Z,52.30
2022-12-17T12:01:26.314Z,49.00
2022-12-17T12:04:23.288Z,44.15
2022-12-17T12:07:19.467Z,47.58
2022-12-17T12:10:11.469Z,47.38
2022-12-17T12:13:06.983Z,42.47
2022-12-17T12:16:04.124Z,39.60
2022-12-17T12:19:00.064Z,40.83
2022-12-17T12:22:01.161Z,41.35
2022-12-17T12:25:00.309Z,43.92
2022-12-17T12:27:54.509Z,42.90
2022-12-17T12:30:41.937Z,40.25
2022-12-17T12:33:42.363Z,45.40
2022-12-17T12:36:30.806Z,45.10
2022-12-17T12:39:19.791Z,41.58
2022-12-17T12:42:11.915Z,36.53
2022-12-17T12:45:06.006Z,39.55
2022-12-17T12:48:01.354Z,39.72
2022-12-17T12:50:55.273Z,34.90
2022-12-17T12:53:44.032Z,33.58
2022-12-17T12:56:52.275Z,31.00
2022-12-17T12:59:46.343Z,34.40
2022-12-17T13:02:45.794Z,36.97
2022-12-17T13:05:35.345Z,32.10
2022-12-17T13:08:17.514Z,33.45
2022-12-17T13:10:45.486Z,33.45
2022-12-17T13:13:25.877Z,31.30
2022-12-17T13:15:57.118Z,38.80
2022-12-17T13:18:28.970Z,33.60
2022-12-17T13:20:59.900Z,34.92
2022-12-17T13:23:32.805Z,41.50
2022-12-17T13:26:20.088Z,36.75
2022-12-17T13:29:13.105Z,45.03
2022-12-17T13:31:51.947Z,44.05
2022-12-17T13:34:26.002Z,45.35
2022-12-17T13:37:02.541Z,44.33
2022-12-17T13:39:40.550Z,42.65
2022-12-17T13:42:19.270Z,53.38
2022-12-17T13:44:48.171Z,51.47
2022-12-17T13:47:22.622Z,55.78
2022-12-17T13:50:31.588Z,54.65
2022-12-17T13:52:42.570Z,55.53
2022-12-17T13:55:19.484Z,55.72
2022-12-17T13:57:48.837Z,60.75
2022-12-17T14:00:23.117Z,61.92
2022-12-17T14:02:51.901Z,61.00
2022-12-17T14:05:27.209Z,63.50
2022-12-17T14:07:55.884Z,63.67
2022-12-17T14:10:26.140Z,64.97
2022-12-17T14:13:04.063Z,61.85
2022-12-17T14:18:00.628Z,71.60
2022-12-17T14:20:31.810Z,65.75
2022-12-17T14:23:04.362Z,71.53
2022-12-17T14:25:37.902Z,63.20
2022-12-17T14:28:07.671Z,59.85
2022-12-17T14:31:02.465Z,58.92
2022-12-17T14:33:29.690Z,62.08
2022-12-17T14:35:59.013Z,65.82
2022-12-17T14:38:38.055Z,63.50
2022-12-17T14:41:27.228Z,73.07
2022-12-17T14:43:59.784Z,70.70
2022-12-17T14:46:29.004Z,71.43
2022-12-17T14:49:03.974Z,72.10
2022-12-17T14:51:34.481Z,69.75
2022-12-17T14:54:24.165Z,72.30
2022-12-17T14:56:55.706Z,73.47
2022-12-17T14:59:31.561Z,76.93
2022-12-17T15:02:03.057Z,75.47
2022-12-17T15:04:32.604Z,84.60
2022-12-17T15:07:00.877Z,74.20
2022-12-17T15:09:28.810Z,74.95
2022-12-17T15:11:58.061Z,79.70
2022-12-17T15:14:25.941Z,77.55
2022-12-17T15:16:55.814Z,80.68
2022-12-17T15:19:23.805Z,86.82
2022-12-17T15:21:51.947Z,82.32
2022-12-17T15:24:21.910Z,85.03
2022-12-17T15:26:50.072Z,86.68
2022-12-17T15:29:19.360Z,79.00
2022-12-17T15:31:47.381Z,82.72
2022-12-17T15:34:15.755Z,86.45
2022-12-17T15:36:43.766Z,89.28
2022-12-17T15:39:12.338Z,82.70
2022-12-17T15:41:57.726Z,74.93
2022-12-17T15:44:27.590Z,83.75
2022-12-17T15:46:55.587Z,92.13
2022-12-17T15:49:23.466Z,90.28
2022-12-17T15:51:51.428Z,93.05
2022-12-17T15:54:19.295Z,77.45
2022-12-17T15:56:53.614Z,81.38
2022-12-17T15:59:21.543Z,81.15
2022-12-17T16:01:51.097Z,88.40
2022-12-17T16:04:24.630Z,73.78
2022-12-17T16:06:53.055Z,84.15
2022-12-17T16:09:24.301Z,90.65
2022-12-17T16:11:54.702Z,85.05
2022-12-17T16:14:22.822Z,80.78
2022-12-17T16:16:53.021Z,74.07
2022-12-17T16:19:20.900Z,82.07
2022-12-17T16:21:49.000Z,77.97
2022-12-17T16:24:16.913Z,78.07
2022-12-17T16:26:44.855Z,76.88
2022-12-17T16:29:12.765Z,80.55
2022-12-17T16:31:40.831Z,73.45
2022-12-17T16:34:11.012Z,84.22
2022-12-17T16:36:39.084Z,83.28
2022-12-17T16:39:07.147Z,75.78
2022-12-17T16:41:35.431Z,74.95
2022-12-17T16:44:03.985Z,79.53
2022-12-17T16:46:34.384Z,72.07
2022-12-17T16:49:06.837Z,79.85
2022-12-17T16:51:36.539Z,76.32
2022-12-17T16:54:09.580Z,86.50
2022-12-17T16:56:40.222Z,99.82
2022-12-17T16:59:09.392Z,103.47
2022-12-17T17:01:38.363Z,89.45
2022-12-17T17:04:08.302Z,87.80
2022-12-17T17:06:40.968Z,82.32
2022-12-17T17:09:09.813Z,82.95
2022-12-17T17:11:38.213Z,87.10
2022-12-17T17:14:07.588Z,80.30
2022-12-17T17:16:35.684Z,84.35
2022-12-17T17:19:04.683Z,90.82
2022-12-17T17:21:34.300Z,86.97
2022-12-17T17:24:06.986Z,97.85
2022-12-17T17:26:36.080Z,82.25
2022-12-17T17:29:05.103Z,80.45
2022-12-17T17:32:08.672Z,80.05
2022-12-17T17:34:21.519Z,88.38
2022-12-17T17:36:49.406Z,95.47
2022-12-17T17:39:18.809Z,93.22
2022-12-17T17:41:46.738Z,91.90
2022-12-17T17:44:16.321Z,88.85
2022-12-17T17:46:44.361Z,81.00
2022-12-17T17:49:12.595Z,80.68
2022-12-17T17:54:32.016Z,79.35
2022-12-17T17:56:59.972Z,80.95
2022-12-17T17:59:33.176Z,96.38
2022-12-17T18:02:02.642Z,83.65
2022-12-17T18:04:30.987Z,82.88
2022-12-17T18:09:48.308Z,82.47
2022-12-17T18:12:33.568Z,80.63
2022-12-17T18:15:18.436Z,79.72
2022-12-17T18:17:48.366Z,85.10
2022-12-17T18:20:17.053Z,97.68
2022-12-17T18:22:46.733Z,88.85
2022-12-17T18:25:16.814Z,90.25
2022-12-17T18:27:44.915Z,80.80
2022-12-17T18:30:13.510Z,83.75
2022-12-17T18:32:41.411Z,76.18
2022-12-17T18:35:10.020Z,77.22
2022-12-17T18:37:38.109Z,91.68
2022-12-17T18:40:07.351Z,87.10
2022-12-17T18:42:54.283Z,83.82
2022-12-17T18:45:22.199Z,86.25
2022-12-17T18:47:51.667Z,91.38
2022-12-17T18:50:19.741Z,76.38
2022-12-17T18:52:47.710Z,81.22
2022-12-17T18:55:16.264Z,95.03
2022-12-17T18:57:45.976Z,84.50
2022-12-17T19:00:15.405Z,89.45
2022-12-17T19:02:44.272Z,87.35
2022-12-17T19:05:12.376Z,92.90
2022-12-17T19:07:40.330Z,90.18
2022-12-17T19:10:09.032Z,94.50
2022-12-17T19:12:36.986Z,94.63
2022-12-17T19:15:07.103Z,90.65
2022-12-17T19:17:35.107Z,80.88
2022-12-17T19:20:03.063Z,86.28
2022-12-17T19:22:31.068Z,84.35
2022-12-17T19:24:59.305Z,86.00
2022-12-17T19:27:28.810Z,95.95
2022-12-17T19:29:57.186Z,91.13
2022-12-17T19:32:26.592Z,87.20
2022-12-17T19:34:54.503Z,90.03
2022-12-17T19:37:22.468Z,82.10
2022-12-17T19:39:50.385Z,84.88
2022-12-17T19:42:25.457Z,91.22
2022-12-17T19:44:54.996Z,79.65
2022-12-17T19:47:23.635Z,75.15
2022-12-17T19:49:52.878Z,69.75
2022-12-17T19:52:20.779Z,70.65
2022-12-17T19:54:48.665Z,85.55
2022-12-17T19:57:16.562Z,72.43
2022-12-17T19:59:44.474Z,76.00
2022-12-17T20:02:12.508Z,85.40
2022-12-17T20:04:40.589Z,82.53
2022-12-17T20:07:09.858Z,95.78
2022-12-17T20:09:37.909Z,89.65
2022-12-17T20:12:06.226Z,92.03
2022-12-17T20:14:35.262Z,83.60
2022-12-17T20:17:05.993Z,85.38
2022-12-17T20:19:34.897Z,94.97
2022-12-17T20:22:05.949Z,86.57
2022-12-17T20:24:37.156Z,83.60
2022-12-17T20:27:05.786Z,82.40
2022-12-17T20:29:33.992Z,83.25
2022-12-17T20:32:03.264Z,82.10
2022-12-17T20:34:31.829Z,84.10
2022-12-17T20:36:59.819Z,86.85
2022-12-17T20:39:28.436Z,83.78
2022-12-17T20:41:58.156Z,87.85
2022-12-17T20:44:26.671Z,84.05
2022-12-17T20:46:54.893Z,83.50
2022-12-17T20:49:22.970Z,77.13
2022-12-17T20:51:51.130Z,83.28
2022-12-17T20:54:19.668Z,84.03
2022-12-17T20:56:47.599Z,80.72
2022-12-17T20:59:18.654Z,103.90
2022-12-17T21:01:52.811Z,96.47
2022-12-17T21:04:24.170Z,93.68
2022-12-17T21:06:52.928Z,78.50
2022-12-17T21:09:22.461Z,86.85
2022-12-17T21:11:50.680Z,88.63
2022-12-17T21:14:20.205Z,84.03
2022-12-17T21:16:48.480Z,89.22
2022-12-17T21:19:18.740Z,109.35
2022-12-17T21:21:47.009Z,97.38
2022-12-17T21:24:15.030Z,104.28
2022-12-17T21:26:45.950Z,111.10
2022-12-17T21:29:14.487Z,101.68
2022-12-17T21:31:46.430Z,93.18
2022-12-17T21:34:17.079Z,88.18
2022-12-17T21:36:46.281Z,90.80
2022-12-17T21:39:16.082Z,93.72
2022-12-17T21:42:05.890Z,78.78
2022-12-17T21:44:33.845Z,86.70
2022-12-17T21:47:03.340Z,78.45
2022-12-17T21:49:31.366Z,86.13
2022-12-17T21:52:00.514Z,81.45
2022-12-17T21:54:28.543Z,84.82
2022-12-17T21:56:56.466Z,85.88
2022-12-17T21:59:24.479Z,83.88
2022-12-17T22:01:53.646Z,93.40
2022-12-17T22:04:23.071Z,74.40
2022-12-17T22:06:55.590Z,74.07
2022-12-17T22:09:31.693Z,86.40
2022-12-17T22:12:32.024Z,91.40
2022-12-17T22:14:59.914Z,116.97
2022-12-17T22:17:28.288Z,108.95
2022-12-17T22:19:57.497Z,112.63
2022-12-17T22:22:25.387Z,110.07
2022-12-17T22:24:53.458Z,105.78
2022-12-17T22:27:21.571Z,105.18
2022-12-17T22:30:06.861Z,102.35
2022-12-17T22:32:52.427Z,116.75
2022-12-17T22:36:02.740Z,107.43
2022-12-17T22:40:52.360Z,120.65
2022-12-17T22:44:37.804Z,103.03
2022-12-17T22:44:44.738Z,107.68
2022-12-17T22:46:42.962Z,109.65
2022-12-17T22:49:11.250Z,109.68
2022-12-17T22:51:41.532Z,104.10
2022-12-17T22:54:12.132Z,101.95
2022-12-17T22:57:04.344Z,105.22
2022-12-17T22:59:31.282Z,110.70
2022-12-17T23:01:59.313Z,104.25
2022-12-17T23:04:27.355Z,101.55
2022-12-17T23:06:56.719Z,107.85
2022-12-17T23:09:24.595Z,115.32
2022-12-17T23:11:52.558Z,113.07
2022-12-17T23:14:20.902Z,114.38
2022-12-17T23:16:48.823Z,101.13
2022-12-17T23:19:16.858Z,115.07
2022-12-17T23:21:44.869Z,97.95
2022-12-17T23:24:14.088Z,106.70
2022-12-17T23:26:41.960Z,94.15
2022-12-17T23:29:19.112Z,111.90
2022-12-17T23:31:48.250Z,98.88
2022-12-17T23:34:16.446Z,105.25
2022-12-17T23:36:44.413Z,101.15
2022-12-17T23:39:13.858Z,106.65
2022-12-17T23:41:41.880Z,91.60
2022-12-17T23:44:09.774Z,98.18
2022-12-17T23:46:37.872Z,96.45
2022-12-17T23:49:06.913Z,99.63
2022-12-17T23:51:35.058Z,100.75
2022-12-17T23:54:03.180Z,98.22
2022-12-17T23:56:32.440Z,87.93
2022-12-17T23:59:01.889Z,88.60
